createdAt,value
2018-11-11T00:00:36.761Z,13.91
2018-11-11T00:01:36.773Z,13.87
2018-11-11T00:03:29.686Z,14.02
2018-11-11T00:04:29.691Z,13.92
2018-11-11T00:06:23.103Z,14.04
2018-11-11T00:07:23.108Z,14.02
2018-11-11T00:09:16.014Z,13.99
2018-11-11T00:10:16.028Z,14.17
2018-11-11T00:12:09.434Z,14.12
2018-11-11T00:13:09.445Z,14.18
2018-11-11T00:15:02.349Z,14.25
2018-11-11T00:16:02.364Z,14.17
2018-11-11T00:17:55.282Z,14.18
2018-11-11T00:18:55.284Z,14.25
2018-11-11T00:20:48.685Z,14.22
2018-11-11T00:21:48.773Z,14.18
2018-11-11T00:23:42.109Z,14.17
2018-11-11T00:24:42.118Z,14.27
2018-11-11T00:26:35.523Z,14.22
2018-11-11T00:27:35.537Z,14.20
2018-11-11T00:29:28.441Z,14.25
2018-11-11T00:30:28.458Z,14.15
2018-11-11T00:32:21.862Z,14.15
2018-11-11T00:33:21.870Z,14.20
2018-11-11T00:35:15.269Z,14.22
2018-11-11T00:36:15.285Z,14.12
2018-11-11T00:38:08.701Z,14.21
2018-11-11T00:39:08.712Z,14.20
2018-11-11T00:41:02.114Z,14.12
2018-11-11T00:42:02.129Z,14.15
2018-11-11T00:43:55.540Z,14.10
2018-11-11T00:44:55.550Z,14.06
2018-11-11T00:46:48.952Z,14.14
2018-11-11T00:47:48.959Z,14.12
2018-11-11T00:49:42.370Z,14.17
2018-11-11T00:50:42.388Z,14.17
2018-11-11T00:52:35.795Z,14.15
2018-11-11T00:53:35.804Z,14.17
2018-11-11T00:55:28.711Z,14.22
2018-11-11T00:56:28.725Z,14.22
2018-11-11T00:58:22.133Z,14.24
2018-11-11T00:59:22.142Z,14.20
2018-11-11T01:01:15.539Z,14.22
2018-11-11T01:02:15.557Z,14.24
2018-11-11T01:04:08.511Z,14.24
2018-11-11T01:05:08.478Z,14.20
2018-11-11T01:07:01.390Z,14.21
2018-11-11T01:08:01.398Z,14.20
2018-11-11T01:09:54.307Z,14.17
2018-11-11T01:10:54.319Z,14.21
2018-11-11T01:12:47.231Z,14.22
2018-11-11T01:13:47.237Z,14.21
2018-11-11T01:15:40.638Z,14.28
2018-11-11T01:16:40.653Z,14.27
2018-11-11T01:18:35.063Z,14.29
2018-11-11T01:19:35.069Z,14.37
2018-11-11T01:21:27.976Z,14.25
2018-11-11T01:22:27.990Z,14.32
2018-11-11T01:24:21.396Z,14.27
2018-11-11T01:25:21.404Z,14.20
2018-11-11T01:27:14.816Z,14.28
2018-11-11T01:28:14.822Z,14.27
2018-11-11T01:30:07.727Z,14.18
2018-11-11T01:31:07.743Z,14.17
2018-11-11T01:33:00.654Z,14.22
2018-11-11T01:34:00.663Z,14.25
2018-11-11T01:35:53.570Z,14.21
2018-11-11T01:36:53.584Z,14.17
2018-11-11T01:38:46.995Z,14.15
2018-11-11T01:39:47.004Z,14.14
2018-11-11T01:41:40.403Z,14.02
2018-11-11T01:42:40.416Z,14.04
2018-11-11T01:44:33.825Z,14.09
2018-11-11T01:45:33.835Z,13.96
2018-11-11T01:47:27.235Z,13.96
2018-11-11T01:48:27.245Z,13.95
2018-11-11T01:50:20.654Z,13.88
2018-11-11T01:51:20.714Z,13.91
2018-11-11T01:53:14.096Z,13.87
2018-11-11T01:54:14.108Z,13.91
2018-11-11T01:56:07.515Z,13.79
2018-11-11T01:57:07.514Z,13.77
2018-11-11T01:59:00.456Z,13.75
2018-11-11T02:00:00.485Z,13.69
2018-11-11T02:01:53.847Z,13.71
2018-11-11T02:02:53.894Z,13.62
2018-11-11T02:04:46.817Z,13.69
2018-11-11T02:05:46.780Z,13.54
2018-11-11T02:07:40.277Z,13.66
2018-11-11T02:08:40.190Z,13.57
2018-11-11T02:10:33.585Z,13.60
2018-11-11T02:11:33.618Z,13.60
2018-11-11T02:13:27.096Z,13.39
2018-11-11T02:14:27.031Z,13.45
2018-11-11T02:16:20.424Z,13.42
2018-11-11T02:17:20.444Z,13.44
2018-11-11T02:19:13.867Z,13.41
2018-11-11T02:20:14.390Z,13.44
2018-11-11T02:22:07.222Z,13.48
2018-11-11T02:23:07.239Z,13.30
2018-11-11T02:25:00.214Z,13.42
2018-11-11T02:26:00.221Z,13.48
2018-11-11T02:27:53.069Z,13.42
2018-11-11T02:28:53.075Z,13.42
2018-11-11T02:30:46.472Z,13.42
2018-11-11T02:31:46.489Z,13.48
2018-11-11T02:33:39.894Z,13.55
2018-11-11T02:34:39.901Z,13.51
2018-11-11T02:36:32.803Z,13.60
2018-11-11T02:37:32.850Z,13.52
2018-11-11T02:39:26.226Z,13.60
2018-11-11T02:40:26.235Z,13.54
2018-11-11T02:42:19.140Z,13.49
2018-11-11T02:43:19.155Z,13.62
2018-11-11T02:45:12.559Z,13.57
2018-11-11T02:46:12.570Z,13.54
2018-11-11T02:48:05.485Z,13.62
2018-11-11T02:49:05.488Z,13.63
2018-11-11T02:50:58.889Z,13.54
2018-11-11T02:51:58.903Z,13.64
2018-11-11T02:53:51.816Z,13.49
2018-11-11T02:54:51.824Z,13.63
2018-11-11T02:56:44.726Z,13.63
2018-11-11T02:57:44.740Z,13.59
2018-11-11T02:59:37.736Z,13.60
2018-11-11T03:00:37.662Z,13.62
2018-11-11T03:02:31.060Z,13.66
2018-11-11T03:03:31.075Z,13.69
2018-11-11T03:05:23.985Z,13.62
2018-11-11T03:06:23.996Z,13.55
2018-11-11T03:08:17.408Z,13.69
2018-11-11T03:09:17.410Z,13.64
2018-11-11T03:11:10.310Z,13.59
2018-11-11T03:12:10.327Z,13.60
2018-11-11T03:14:03.744Z,13.54
2018-11-11T03:15:03.755Z,13.51
2018-11-11T03:16:56.655Z,13.41
2018-11-11T03:17:56.669Z,13.33
2018-11-11T03:19:50.071Z,13.42
2018-11-11T03:20:50.082Z,13.42
2018-11-11T03:22:42.987Z,13.38
2018-11-11T03:23:43.002Z,13.33
2018-11-11T03:25:35.913Z,13.29
2018-11-11T03:26:35.924Z,13.28
2018-11-11T03:28:28.835Z,13.26
2018-11-11T03:29:28.840Z,13.14
2018-11-11T03:31:21.743Z,13.03
2018-11-11T03:32:21.758Z,13.05
2018-11-11T03:34:14.672Z,12.93
2018-11-11T03:35:14.678Z,12.95
2018-11-11T03:37:08.090Z,12.86
2018-11-11T03:38:08.104Z,12.97
2018-11-11T03:40:01.512Z,12.89
2018-11-11T03:41:01.516Z,12.89
2018-11-11T03:42:54.420Z,12.93
2018-11-11T03:43:54.434Z,12.89
2018-11-11T03:45:47.839Z,12.83
2018-11-11T03:46:47.847Z,12.78
2018-11-11T03:48:41.252Z,12.75
2018-11-11T03:49:41.260Z,12.82
2018-11-11T03:51:34.667Z,12.74
2018-11-11T03:52:34.681Z,12.79
2018-11-11T03:54:28.084Z,12.74
2018-11-11T03:55:28.091Z,12.79
2018-11-11T03:57:21.491Z,12.78
2018-11-11T03:58:21.510Z,12.75
2018-11-11T04:00:14.413Z,12.82
2018-11-11T04:01:14.419Z,12.78
2018-11-11T04:03:07.817Z,12.85
2018-11-11T04:04:07.830Z,12.83
2018-11-11T04:06:00.755Z,12.87
2018-11-11T04:07:00.758Z,12.92
2018-11-11T04:08:54.163Z,12.95
2018-11-11T04:09:54.173Z,12.93
2018-11-11T04:11:47.569Z,12.97
2018-11-11T04:12:47.600Z,13.01
2018-11-11T04:14:41.001Z,12.93
2018-11-11T04:15:41.007Z,12.92
2018-11-11T04:17:34.411Z,12.95
2018-11-11T04:18:34.427Z,12.97
2018-11-11T04:20:27.832Z,13.03
2018-11-11T04:21:27.840Z,12.93
2018-11-11T04:23:20.762Z,12.96
2018-11-11T04:24:20.780Z,12.87
2018-11-11T04:26:14.184Z,13.01
2018-11-11T04:27:14.191Z,12.90
2018-11-11T04:29:07.593Z,12.96
2018-11-11T04:30:07.601Z,13.04
2018-11-11T04:32:00.819Z,13.07
2018-11-11T04:33:00.520Z,13.03
2018-11-11T04:34:53.930Z,13.03
2018-11-11T04:35:53.939Z,13.10
2018-11-11T04:37:46.844Z,13.17
2018-11-11T04:38:46.860Z,13.12
2018-11-11T04:40:40.261Z,13.15
2018-11-11T04:41:40.269Z,13.23
2018-11-11T04:43:33.669Z,13.19
2018-11-11T04:44:33.684Z,13.22
2018-11-11T04:46:27.114Z,13.26
2018-11-11T04:47:27.102Z,13.26
2018-11-11T04:49:20.502Z,13.22
2018-11-11T04:50:20.511Z,13.29
2018-11-11T04:52:13.905Z,13.38
2018-11-11T04:53:13.926Z,13.30
2018-11-11T04:55:06.849Z,13.32
2018-11-11T04:56:06.845Z,13.33
2018-11-11T04:58:00.242Z,13.44
2018-11-11T04:59:00.273Z,13.42
2018-11-11T05:00:53.168Z,13.45
2018-11-11T05:01:53.172Z,13.42
2018-11-11T05:03:46.084Z,13.45
2018-11-11T05:04:46.260Z,13.42
2018-11-11T05:06:39.019Z,13.54
2018-11-11T05:07:39.019Z,13.48
2018-11-11T05:09:31.929Z,13.55
2018-11-11T05:10:31.937Z,13.55
2018-11-11T05:12:25.338Z,13.52
2018-11-11T05:13:25.353Z,13.62
2018-11-11T05:15:18.265Z,13.59
2018-11-11T05:16:18.270Z,13.62
2018-11-11T05:18:11.175Z,13.52
2018-11-11T05:19:11.192Z,13.60
2018-11-11T05:21:04.605Z,13.59
2018-11-11T05:22:04.665Z,13.55
2018-11-11T05:23:57.520Z,13.55
2018-11-11T05:24:57.535Z,13.69
2018-11-11T05:26:50.940Z,13.59
2018-11-11T05:27:50.948Z,13.66
2018-11-11T05:29:44.352Z,13.66
2018-11-11T05:30:44.373Z,13.66
2018-11-11T05:32:37.757Z,13.64
2018-11-11T05:33:37.773Z,13.57
2018-11-11T05:35:31.183Z,13.57
2018-11-11T05:36:31.194Z,13.59
2018-11-11T05:38:24.097Z,13.62
2018-11-11T05:39:24.108Z,13.64
2018-11-11T05:41:17.020Z,13.67
2018-11-11T05:42:17.028Z,13.77
2018-11-11T05:44:10.425Z,13.71
2018-11-11T05:45:10.448Z,13.73
2018-11-11T05:47:03.844Z,13.71
2018-11-11T05:48:03.854Z,13.81
2018-11-11T05:49:56.773Z,13.75
2018-11-11T05:50:56.776Z,13.78
2018-11-11T05:52:49.683Z,13.75
2018-11-11T05:53:49.698Z,13.77
2018-11-11T05:55:43.108Z,13.70
2018-11-11T05:56:43.113Z,13.75
2018-11-11T05:58:36.023Z,13.78
2018-11-11T05:59:36.034Z,13.73
2018-11-11T06:01:28.945Z,13.77
2018-11-11T06:02:28.954Z,13.71
2018-11-11T06:04:22.353Z,13.75
2018-11-11T06:05:22.368Z,13.63
2018-11-11T06:07:15.279Z,13.55
2018-11-11T06:08:15.287Z,13.55
2018-11-11T06:10:08.701Z,13.59
2018-11-11T06:11:08.711Z,13.55
2018-11-11T06:13:01.614Z,13.67
2018-11-11T06:14:01.627Z,13.52
2018-11-11T06:15:55.033Z,13.60
2018-11-11T06:16:55.043Z,13.59
2018-11-11T06:18:47.950Z,13.62
2018-11-11T06:19:47.963Z,13.64
2018-11-11T06:21:40.879Z,13.66
2018-11-11T06:22:40.886Z,13.66
2018-11-11T06:24:34.285Z,13.66
2018-11-11T06:25:34.298Z,13.64
2018-11-11T06:27:27.786Z,13.67
2018-11-11T06:28:27.725Z,13.64
2018-11-11T06:30:20.632Z,13.59
2018-11-11T06:31:20.640Z,13.55
2018-11-11T06:33:14.042Z,13.54
2018-11-11T06:34:14.097Z,13.62
2018-11-11T06:36:07.463Z,13.69
2018-11-11T06:37:07.472Z,13.57
2018-11-11T06:39:01.371Z,13.60
2018-11-11T06:40:01.385Z,13.57
2018-11-11T06:41:54.792Z,13.51
2018-11-11T06:42:54.801Z,13.55
2018-11-11T06:44:48.703Z,13.54
2018-11-11T06:45:48.714Z,13.54
2018-11-11T06:47:42.134Z,13.57
2018-11-11T06:48:42.144Z,13.54
2018-11-11T06:50:35.563Z,13.55
2018-11-11T06:51:35.572Z,13.54
2018-11-11T06:53:28.985Z,13.62
2018-11-11T06:54:28.997Z,13.60
2018-11-11T06:56:22.400Z,13.62
2018-11-11T06:57:22.493Z,13.51
2018-11-11T06:59:15.810Z,13.52
2018-11-11T07:00:15.824Z,13.63
2018-11-11T07:02:09.230Z,13.60
2018-11-11T07:03:09.239Z,13.66
2018-11-11T07:05:02.650Z,13.70
2018-11-11T07:06:02.667Z,13.70
2018-11-11T07:07:56.076Z,13.54
2018-11-11T07:08:56.088Z,13.67
2018-11-11T07:10:49.496Z,13.69
2018-11-11T07:11:49.502Z,13.79
2018-11-11T07:13:42.402Z,13.75
2018-11-11T07:14:42.417Z,13.75
2018-11-11T07:16:35.333Z,13.77
2018-11-11T07:17:35.336Z,13.79
2018-11-11T07:19:28.740Z,13.75
2018-11-11T07:20:28.752Z,13.71
2018-11-11T07:22:21.662Z,13.71
2018-11-11T07:23:21.675Z,13.69
2018-11-11T07:25:14.574Z,13.78
2018-11-11T07:26:14.590Z,13.82
2018-11-11T07:28:07.505Z,13.79
2018-11-11T07:29:07.507Z,13.73
2018-11-11T07:31:00.860Z,13.79
2018-11-11T07:32:00.428Z,13.84
2018-11-11T07:33:53.826Z,13.82
2018-11-11T07:34:53.845Z,13.88
2018-11-11T07:36:47.246Z,13.92
2018-11-11T07:37:47.256Z,14.00
2018-11-11T07:39:40.159Z,14.10
2018-11-11T07:40:40.175Z,13.97
2018-11-11T07:42:33.667Z,14.10
2018-11-11T07:43:33.591Z,14.12
2018-11-11T07:45:26.991Z,14.10
2018-11-11T07:46:27.008Z,14.18
2018-11-11T07:48:20.414Z,14.29
2018-11-11T07:49:20.424Z,14.29
2018-11-11T07:51:13.830Z,14.33
2018-11-11T07:52:13.839Z,14.40
2018-11-11T07:54:07.238Z,14.36
2018-11-11T07:55:07.359Z,14.35
2018-11-11T07:57:00.956Z,14.40
2018-11-11T07:58:00.175Z,14.32
2018-11-11T07:59:53.100Z,14.43
2018-11-11T08:00:53.117Z,14.43
2018-11-11T08:02:46.527Z,14.50
2018-11-11T08:03:46.573Z,14.54
2018-11-11T08:05:39.935Z,14.52
2018-11-11T08:06:40.039Z,14.54
2018-11-11T08:08:32.867Z,14.54
2018-11-11T08:09:32.873Z,14.51
2018-11-11T08:11:26.678Z,14.60
2018-11-11T08:12:26.290Z,14.64
2018-11-11T08:14:19.692Z,14.69
2018-11-11T08:15:19.707Z,14.68
2018-11-11T08:17:13.120Z,14.51
2018-11-11T08:18:13.125Z,14.58
2018-11-11T08:20:06.030Z,14.60
2018-11-11T08:21:06.048Z,14.65
2018-11-11T08:22:58.964Z,14.51
2018-11-11T08:23:58.969Z,14.55
2018-11-11T08:25:52.369Z,14.62
2018-11-11T08:26:52.389Z,14.70
2018-11-11T08:28:45.298Z,14.69
2018-11-11T08:29:45.307Z,14.72
2018-11-11T08:31:38.719Z,14.78
2018-11-11T08:32:38.728Z,14.72
2018-11-11T08:34:31.633Z,14.68
2018-11-11T08:35:31.650Z,14.78
2018-11-11T08:37:24.562Z,14.86
2018-11-11T08:38:24.572Z,14.81
2018-11-11T08:40:17.541Z,14.88
2018-11-11T08:41:17.493Z,14.99
2018-11-11T08:43:10.406Z,14.95
2018-11-11T08:44:10.417Z,14.96
2018-11-11T08:46:03.321Z,14.95
2018-11-11T08:47:03.337Z,14.89
2018-11-11T08:48:56.262Z,15.03
2018-11-11T08:49:56.267Z,15.07
2018-11-11T08:51:49.683Z,15.13
2018-11-11T08:52:49.685Z,15.16
2018-11-11T08:54:43.086Z,14.99
2018-11-11T08:55:43.103Z,15.11
2018-11-11T08:57:36.511Z,15.16
2018-11-11T08:58:36.522Z,15.13
2018-11-11T09:00:29.427Z,15.19
2018-11-11T09:01:29.444Z,15.20
2018-11-11T09:03:22.851Z,15.28
2018-11-11T09:04:22.914Z,15.20
2018-11-11T09:06:15.795Z,15.32
2018-11-11T09:07:15.808Z,15.27
2018-11-11T09:09:09.226Z,15.31
2018-11-11T09:10:09.236Z,15.19
2018-11-11T09:12:02.189Z,15.19
2018-11-11T09:13:02.183Z,15.19
2018-11-11T09:14:55.093Z,15.19
2018-11-11T09:15:55.103Z,15.27
2018-11-11T09:17:48.521Z,15.34
2018-11-11T09:18:48.526Z,15.38
2018-11-11T09:20:41.930Z,15.46
2018-11-11T09:21:42.065Z,15.49
2018-11-11T09:23:35.357Z,15.54
2018-11-11T09:24:35.361Z,15.64
2018-11-11T09:26:28.837Z,15.59
2018-11-11T09:27:28.791Z,15.68
2018-11-11T09:29:22.261Z,15.76
2018-11-11T09:30:22.315Z,15.82
2018-11-11T09:32:15.128Z,15.76
2018-11-11T09:33:15.217Z,15.72
2018-11-11T09:35:08.098Z,15.72
2018-11-11T09:36:08.056Z,15.68
2018-11-11T09:38:01.470Z,15.59
2018-11-11T09:39:01.598Z,15.68
2018-11-11T09:40:54.878Z,15.68
2018-11-11T09:41:54.895Z,15.68
2018-11-11T09:43:47.822Z,15.71
2018-11-11T09:44:47.853Z,15.65
2018-11-11T09:46:40.739Z,15.74
2018-11-11T09:47:40.770Z,15.72
2018-11-11T09:49:33.675Z,15.68
2018-11-11T09:50:33.681Z,15.75
2018-11-11T09:52:26.645Z,15.80
2018-11-11T09:53:26.608Z,15.76
2018-11-11T09:55:19.517Z,15.84
2018-11-11T09:56:19.535Z,15.87
2018-11-11T09:58:12.941Z,15.90
2018-11-11T09:59:12.956Z,15.86
2018-11-11T10:01:06.359Z,15.87
2018-11-11T10:02:06.374Z,15.97
2018-11-11T10:03:59.782Z,16.01
2018-11-11T10:04:59.861Z,16.07
2018-11-11T10:06:52.716Z,16.15
2018-11-11T10:07:52.716Z,16.17
2018-11-11T10:09:45.642Z,16.38
2018-11-11T10:10:45.643Z,16.50
2018-11-11T10:12:39.206Z,16.52
2018-11-11T10:13:39.066Z,16.67
2018-11-11T10:15:32.478Z,16.70
2018-11-11T10:16:32.484Z,16.78
2018-11-11T10:18:25.507Z,16.83
2018-11-11T10:19:25.521Z,16.89
2018-11-11T10:21:19.436Z,17.03
2018-11-11T10:22:19.454Z,16.98
2018-11-11T10:24:12.868Z,16.98
2018-11-11T10:25:12.880Z,17.06
2018-11-11T10:27:05.844Z,16.96
2018-11-11T10:28:05.812Z,17.06
2018-11-11T10:29:58.725Z,17.14
2018-11-11T10:30:58.737Z,17.14
2018-11-11T10:32:52.153Z,17.19
2018-11-11T10:33:52.256Z,17.21
2018-11-11T10:35:46.777Z,17.08
2018-11-11T10:36:46.787Z,17.18
2018-11-11T10:38:39.717Z,16.97
2018-11-11T10:39:39.715Z,17.06
2018-11-11T10:41:33.121Z,16.89
2018-11-11T10:42:33.135Z,16.86
2018-11-11T10:44:26.592Z,16.89
2018-11-11T10:45:26.559Z,16.94
2018-11-11T10:47:19.470Z,17.00
2018-11-11T10:48:19.487Z,16.83
2018-11-11T10:50:12.404Z,16.93
2018-11-11T10:51:12.414Z,16.97
2018-11-11T10:53:05.331Z,16.86
2018-11-11T10:54:05.350Z,16.86
2018-11-11T10:55:59.754Z,16.82
2018-11-11T10:56:59.801Z,16.94
2018-11-11T10:58:52.818Z,16.93
2018-11-11T10:59:52.690Z,16.86
2018-11-11T11:01:46.113Z,16.88
2018-11-11T11:02:46.122Z,16.89
2018-11-11T11:04:39.540Z,16.98
2018-11-11T11:05:39.551Z,16.96
2018-11-11T11:07:32.460Z,17.06
2018-11-11T11:08:32.482Z,17.01
2018-11-11T11:10:25.891Z,17.04
2018-11-11T11:11:25.899Z,17.07
2018-11-11T11:13:18.832Z,17.06
2018-11-11T11:14:18.836Z,17.00
2018-11-11T11:16:11.743Z,17.08
2018-11-11T11:17:11.755Z,17.11
2018-11-11T11:19:04.663Z,17.14
2018-11-11T11:20:04.681Z,17.06
2018-11-11T11:21:58.096Z,17.15
2018-11-11T11:22:58.122Z,17.07
2018-11-11T11:24:51.029Z,17.03
2018-11-11T11:25:51.124Z,16.98
2018-11-11T11:27:43.945Z,16.89
2018-11-11T11:28:43.963Z,16.78
2018-11-11T11:30:36.883Z,16.58
2018-11-11T11:31:36.949Z,16.49
2018-11-11T11:33:29.799Z,16.48
2018-11-11T11:34:30.081Z,16.41
2018-11-11T11:36:23.227Z,16.46
2018-11-11T11:37:23.244Z,16.41
2018-11-11T11:39:16.149Z,16.41
2018-11-11T11:40:16.166Z,16.46
2018-11-11T11:42:09.098Z,16.53
2018-11-11T11:43:09.094Z,16.48
2018-11-11T11:45:02.004Z,16.41
2018-11-11T11:46:02.018Z,16.42
2018-11-11T11:47:55.431Z,16.56
2018-11-11T11:48:55.442Z,16.45
2018-11-11T11:50:48.868Z,16.48
2018-11-11T11:51:48.915Z,16.50
2018-11-11T11:53:41.779Z,16.50
2018-11-11T11:54:41.798Z,16.52
2018-11-11T11:56:34.712Z,16.57
2018-11-11T11:57:34.730Z,16.46
2018-11-11T11:59:27.638Z,16.50
2018-11-11T12:00:27.656Z,16.57
2018-11-11T12:02:20.628Z,16.46
2018-11-11T12:03:20.584Z,16.53
2018-11-11T12:05:13.987Z,16.63
2018-11-11T12:06:14.006Z,16.66
2018-11-11T12:08:06.926Z,16.75
2018-11-11T12:09:06.950Z,16.75
2018-11-11T12:11:01.359Z,16.86
2018-11-11T12:12:00.360Z,16.83
2018-11-11T12:13:53.270Z,16.82
2018-11-11T12:14:53.281Z,16.97
2018-11-11T12:16:46.299Z,16.96
2018-11-11T12:17:46.209Z,17.00
2018-11-11T12:19:39.118Z,16.93
2018-11-11T12:20:39.201Z,17.00
2018-11-11T12:22:32.578Z,16.82
2018-11-11T12:23:32.589Z,16.88
2018-11-11T12:25:25.498Z,16.88
2018-11-11T12:26:25.516Z,16.82
2018-11-11T12:28:18.457Z,16.82
2018-11-11T12:29:18.444Z,16.79
2018-11-11T12:31:11.353Z,16.89
2018-11-11T12:32:11.368Z,16.93
2018-11-11T12:34:04.285Z,16.97
2018-11-11T12:35:04.321Z,17.14
2018-11-11T12:36:58.221Z,17.25
2018-11-11T12:37:58.219Z,17.25
2018-11-11T12:39:51.762Z,17.43
2018-11-11T12:40:51.645Z,17.43
2018-11-11T12:42:45.052Z,17.34
2018-11-11T12:43:45.065Z,17.26
2018-11-11T12:45:37.975Z,17.28
2018-11-11T12:46:38.001Z,17.18
2018-11-11T12:48:30.913Z,17.11
2018-11-11T12:49:30.924Z,17.15
2018-11-11T12:51:24.332Z,17.18
2018-11-11T12:52:24.349Z,17.08
2018-11-11T12:54:17.273Z,17.07
2018-11-11T12:55:17.294Z,17.07
2018-11-11T12:57:10.197Z,17.16
2018-11-11T12:58:10.209Z,17.15
2018-11-11T13:00:03.134Z,17.16
2018-11-11T13:01:03.141Z,17.12
2018-11-11T13:02:56.551Z,17.00
2018-11-11T13:03:56.560Z,17.01
2018-11-11T13:05:49.474Z,16.97
2018-11-11T13:06:49.497Z,17.04
2018-11-11T13:08:42.406Z,17.06
2018-11-11T13:09:42.420Z,17.03
2018-11-11T13:11:35.450Z,17.01
2018-11-11T13:12:35.345Z,17.01
2018-11-11T13:14:28.262Z,16.93
2018-11-11T13:15:28.274Z,17.01
2018-11-11T13:17:21.181Z,17.00
2018-11-11T13:18:21.203Z,16.97
2018-11-11T13:20:14.120Z,16.94
2018-11-11T13:21:14.128Z,16.97
2018-11-11T13:23:07.047Z,17.06
2018-11-11T13:24:07.058Z,17.08
2018-11-11T13:25:59.969Z,17.00
2018-11-11T13:26:59.985Z,17.08
2018-11-11T13:28:52.898Z,17.11
2018-11-11T13:29:52.910Z,17.12
2018-11-11T13:31:45.873Z,17.11
2018-11-11T13:32:45.841Z,17.08
2018-11-11T13:34:38.765Z,17.18
2018-11-11T13:35:38.810Z,17.19
2018-11-11T13:37:31.689Z,17.31
2018-11-11T13:38:31.734Z,17.28
2018-11-11T13:40:24.623Z,17.23
2018-11-11T13:41:24.635Z,17.23
2018-11-11T13:43:17.585Z,17.25
2018-11-11T13:44:17.564Z,17.22
2018-11-11T13:46:10.510Z,17.26
2018-11-11T13:47:10.488Z,17.26
2018-11-11T13:49:03.483Z,17.21
2018-11-11T13:50:03.496Z,17.26
2018-11-11T13:51:56.353Z,17.22
2018-11-11T13:52:56.355Z,17.19
2018-11-11T13:54:49.288Z,17.08
2018-11-11T13:55:49.371Z,17.07
2018-11-11T13:57:42.223Z,17.04
2018-11-11T13:58:42.225Z,17.04
2018-11-11T14:00:35.143Z,16.97
2018-11-11T14:01:35.165Z,16.96
2018-11-11T14:03:28.110Z,17.07
2018-11-11T14:04:28.082Z,17.04
2018-11-11T14:06:21.486Z,16.91
2018-11-11T14:07:21.504Z,16.98
2018-11-11T14:09:14.510Z,16.85
2018-11-11T14:10:14.430Z,16.89
2018-11-11T14:12:07.342Z,16.76
2018-11-11T14:13:07.435Z,16.88
2018-11-11T14:15:00.783Z,16.81
2018-11-11T14:16:00.295Z,16.82
2018-11-11T14:17:53.213Z,16.79
2018-11-11T14:18:53.401Z,16.76
2018-11-11T14:20:46.131Z,16.71
2018-11-11T14:21:46.154Z,16.71
2018-11-11T14:23:39.059Z,16.64
2018-11-11T14:24:39.122Z,16.64
2018-11-11T14:26:32.070Z,16.67
2018-11-11T14:27:31.997Z,16.68
2018-11-11T14:29:24.911Z,16.58
2018-11-11T14:30:24.923Z,16.52
2018-11-11T14:32:17.866Z,16.49
2018-11-11T14:33:17.849Z,16.53
2018-11-11T14:35:11.259Z,16.53
2018-11-11T14:36:11.273Z,16.53
2018-11-11T14:38:04.186Z,16.49
2018-11-11T14:39:04.195Z,16.48
2018-11-11T14:40:57.115Z,16.48
2018-11-11T14:41:57.125Z,16.42
2018-11-11T14:43:50.043Z,16.46
2018-11-11T14:44:50.053Z,16.43
2018-11-11T14:46:42.967Z,16.50
2018-11-11T14:47:43.035Z,16.35
2018-11-11T14:49:35.894Z,16.31
2018-11-11T14:50:35.904Z,16.43
2018-11-11T14:52:28.855Z,16.43
2018-11-11T14:53:28.828Z,16.25
2018-11-11T14:55:21.804Z,16.24
2018-11-11T14:56:21.759Z,16.17
2018-11-11T14:58:14.722Z,16.23
2018-11-11T14:59:14.683Z,16.15
2018-11-11T15:01:07.590Z,16.24
2018-11-11T15:02:07.607Z,16.11
2018-11-11T15:04:00.574Z,16.14
2018-11-11T15:05:00.529Z,16.04
2018-11-11T15:06:53.438Z,16.08
2018-11-11T15:07:53.510Z,16.07
2018-11-11T15:09:46.372Z,16.08
2018-11-11T15:10:46.382Z,16.08
2018-11-11T15:12:39.296Z,16.05
2018-11-11T15:13:39.305Z,16.05
2018-11-11T15:15:32.223Z,15.97
2018-11-11T15:16:32.233Z,16.02
2018-11-11T15:18:25.138Z,16.07
2018-11-11T15:19:25.258Z,16.09
2018-11-11T15:21:18.070Z,16.09
2018-11-11T15:22:18.080Z,16.02
2018-11-11T15:24:10.999Z,15.86
2018-11-11T15:25:11.038Z,15.96
2018-11-11T15:27:03.912Z,15.89
2018-11-11T15:28:03.929Z,15.89
2018-11-11T15:29:56.844Z,15.87
2018-11-11T15:30:56.940Z,15.87
2018-11-11T15:32:49.759Z,15.82
2018-11-11T15:33:49.776Z,15.75
2018-11-11T15:35:42.693Z,15.68
2018-11-11T15:36:42.701Z,15.68
2018-11-11T15:38:35.607Z,15.36
2018-11-11T15:39:35.626Z,15.50
2018-11-11T15:41:28.563Z,15.44
2018-11-11T15:42:28.711Z,15.35
2018-11-11T15:44:21.453Z,15.49
2018-11-11T15:45:21.472Z,15.43
2018-11-11T15:47:14.384Z,15.31
2018-11-11T15:48:14.394Z,15.36
2018-11-11T15:50:07.314Z,15.29
2018-11-11T15:51:07.323Z,15.35
2018-11-11T15:53:00.755Z,15.21
2018-11-11T15:54:00.247Z,15.27
2018-11-11T15:55:53.158Z,15.27
2018-11-11T15:56:53.168Z,15.29
2018-11-11T15:58:46.072Z,15.16
2018-11-11T15:59:46.093Z,15.10
2018-11-11T16:01:39.005Z,15.17
2018-11-11T16:02:39.014Z,15.19
2018-11-11T16:04:31.921Z,15.07
2018-11-11T16:05:31.937Z,15.01
2018-11-11T16:07:24.851Z,15.02
2018-11-11T16:08:24.870Z,14.95
2018-11-11T16:10:17.762Z,14.94
2018-11-11T16:11:17.782Z,14.91
2018-11-11T16:13:10.693Z,14.94
2018-11-11T16:14:10.714Z,14.92
2018-11-11T16:16:03.616Z,14.96
2018-11-11T16:17:03.624Z,14.95
2018-11-11T16:18:56.534Z,14.91
2018-11-11T16:19:56.661Z,14.86
2018-11-11T16:21:49.461Z,14.96
2018-11-11T16:22:49.467Z,14.86
2018-11-11T16:24:42.374Z,14.98
2018-11-11T16:25:42.525Z,14.99
2018-11-11T16:27:35.306Z,14.96
2018-11-11T16:28:35.308Z,14.95
2018-11-11T16:30:28.226Z,14.98
2018-11-11T16:31:28.293Z,14.98
2018-11-11T16:33:21.149Z,14.96
2018-11-11T16:34:21.159Z,14.95
2018-11-11T16:36:14.076Z,14.95
2018-11-11T16:37:14.081Z,14.96
2018-11-11T16:39:07.001Z,14.96
2018-11-11T16:40:07.005Z,14.98
2018-11-11T16:41:59.963Z,15.01
2018-11-11T16:42:59.930Z,15.03
2018-11-11T16:44:52.837Z,15.13
2018-11-11T16:45:52.850Z,15.01
2018-11-11T16:47:45.772Z,15.03
2018-11-11T16:48:45.773Z,15.13
2018-11-11T16:50:38.678Z,15.09
2018-11-11T16:51:38.750Z,15.11
2018-11-11T16:53:32.102Z,15.19
2018-11-11T16:54:32.112Z,15.17
2018-11-11T16:56:25.023Z,15.14
2018-11-11T16:57:25.035Z,15.23
2018-11-11T16:59:17.950Z,15.10
2018-11-11T17:00:17.955Z,15.27
2018-11-11T17:02:10.871Z,15.21
2018-11-11T17:03:10.883Z,15.19
2018-11-11T17:05:03.786Z,15.19
2018-11-11T17:06:03.811Z,15.17
2018-11-11T17:07:56.718Z,15.16
2018-11-11T17:08:56.724Z,15.17
2018-11-11T17:10:49.633Z,15.23
2018-11-11T17:11:49.648Z,15.16
2018-11-11T17:13:42.563Z,15.10
2018-11-11T17:14:42.574Z,15.09
2018-11-11T17:16:35.478Z,14.98
2018-11-11T17:17:35.493Z,14.95
2018-11-11T17:19:28.407Z,15.06
2018-11-11T17:20:28.554Z,15.01
2018-11-11T17:22:21.533Z,15.07
2018-11-11T17:23:21.339Z,15.07
2018-11-11T17:25:14.275Z,15.13
2018-11-11T17:26:14.260Z,15.16
2018-11-11T17:28:07.306Z,15.16
2018-11-11T17:29:07.215Z,15.09
2018-11-11T17:31:00.463Z,15.11
2018-11-11T17:32:00.105Z,15.06
2018-11-11T17:33:53.019Z,15.02
2018-11-11T17:34:53.026Z,15.06
2018-11-11T17:36:45.933Z,15.09
2018-11-11T17:37:45.951Z,15.13
2018-11-11T17:39:38.869Z,15.16
2018-11-11T17:40:38.925Z,15.16
2018-11-11T17:42:31.781Z,15.16
2018-11-11T17:43:31.800Z,15.20
2018-11-11T17:45:24.710Z,15.11
2018-11-11T17:46:24.720Z,15.06
2018-11-11T17:48:17.655Z,14.91
2018-11-11T17:49:17.643Z,14.95
2018-11-11T17:51:10.548Z,14.99
2018-11-11T17:52:10.561Z,14.95
2018-11-11T17:54:03.476Z,15.07
2018-11-11T17:55:03.486Z,15.07
2018-11-11T17:56:56.399Z,15.06
2018-11-11T17:57:56.408Z,15.11
2018-11-11T17:59:49.321Z,15.07
2018-11-11T18:00:49.330Z,15.19
2018-11-11T18:02:42.237Z,15.16
2018-11-11T18:03:42.254Z,15.17
2018-11-11T18:05:35.177Z,15.11
2018-11-11T18:06:35.179Z,15.17
2018-11-11T18:08:28.082Z,15.14
2018-11-11T18:09:28.097Z,15.13
2018-11-11T18:11:21.014Z,15.07
2018-11-11T18:12:21.020Z,15.10
2018-11-11T18:14:13.972Z,15.09
2018-11-11T18:15:13.949Z,15.03
2018-11-11T18:17:06.902Z,15.13
2018-11-11T18:18:06.863Z,15.19
2018-11-11T18:19:59.778Z,15.16
2018-11-11T18:20:59.786Z,15.13
2018-11-11T18:22:52.694Z,15.09
2018-11-11T18:23:52.716Z,15.10
2018-11-11T18:25:45.626Z,15.09
2018-11-11T18:26:45.682Z,15.09
2018-11-11T18:28:38.577Z,15.09
2018-11-11T18:29:38.565Z,15.09
2018-11-11T18:31:31.476Z,15.03
2018-11-11T18:32:31.483Z,15.11
2018-11-11T18:34:24.454Z,15.03